Time;durP1;ratioP1;P1;durP2;ratioP2;P2;SDS_P1;SDS_P2;PMS_P1;PMS_P2;Temp;Humidity;BMP_temperature;BMP_pressure;BME280_temperature;BME280_humidity;BME280_pressure;Samples;Min_cycle;Max_cycle;Signal;HPM_P1;HPM_P2
2023/07/01 00:02:12;;;;;;;3.08;1.40;;;21.00;64.50;;;;;;2514014;55;20986;-71
2023/07/01 00:04:40;;;;;;;2.87;1.25;;;21.00;64.50;;;;;;2282771;55;21234;-73
2023/07/01 00:07:44;;;;;;;2.85;1.23;;;21.00;64.50;;;;;;2281601;55;20962;-71
2023/07/01 00:10:29;;;;;;;2.75;1.37;;;21.00;64.50;;;;;;2515270;55;21729;-71
2023/07/01 00:12:59;;;;;;;2.47;1.20;;;21.00;64.30;;;;;;2279225;55;21070;-70
2023/07/01 00:15:28;;;;;;;3.53;1.15;;;20.90;64.30;;;;;;2298371;55;21493;-70
2023/07/01 00:17:54;;;;;;;2.60;1.40;;;20.90;64.30;;;;;;2516759;54;20975;-71
2023/07/01 00:20:21;;;;;;;2.70;1.25;;;20.90;64.30;;;;;;2308324;55;21075;-70
2023/07/01 00:22:47;;;;;;;2.50;1.33;;;20.90;64.30;;;;;;2308138;55;21047;-71
2023/07/01 00:25:14;;;;;;;3.35;1.42;;;20.90;64.30;;;;;;2518292;54;20979;-73
2023/07/01 00:27:40;;;;;;;3.03;1.62;;;20.80;64.20;;;;;;2275806;56;20950;-71
2023/07/01 00:30:08;;;;;;;4.87;1.65;;;20.80;64.20;;;;;;2281921;56;21049;-70
2023/07/01 00:32:34;;;;;;;2.70;1.40;;;20.80;64.30;;;;;;2521686;54;20969;-72
2023/07/01 00:35:01;;;;;;;3.08;1.45;;;20.80;64.20;;;;;;2504183;55;21044;-70
2023/07/01 00:37:28;;;;;;;2.75;1.42;;;20.80;64.30;;;;;;2490128;54;20942;-72
2023/07/01 00:43:22;;;;;;;2.28;1.17;;;20.70;64.30;;;;;;2525860;54;21473;-70
2023/07/01 00:45:49;;;;;;;4.10;1.30;;;20.70;64.20;;;;;;2251850;55;21069;-72
2023/07/01 00:48:25;;;;;;;2.80;1.42;;;20.70;64.30;;;;;;2270743;56;20954;-71
2023/07/01 00:50:51;;;;;;;2.45;1.17;;;20.70;64.30;;;;;;2282086;56;21476;-72
2023/07/01 00:53:27;;;;;;;3.47;1.37;;;20.70;64.30;;;;;;2510701;55;20951;-72
2023/07/01 00:56:39;;;;;;;2.30;1.00;;;20.60;64.10;;;;;;2516037;55;21745;-72
2023/07/01 00:59:06;;;;;;;2.72;1.20;;;20.60;64.20;;;;;;2289801;55;21055;-75
2023/07/01 01:01:34;;;;;;;2.62;1.20;;;20.60;64.10;;;;;;2479402;55;20988;-71
2023/07/01 01:04:23;;;;;;;5.47;1.30;;;20.50;64.00;;;;;;2293687;55;20958;-72
2023/07/01 01:07:01;;;;;;;3.15;1.87;;;20.50;63.90;;;;;;2510494;55;21011;-73
2023/07/01 01:12:32;;;;;;;2.80;1.40;;;20.50;64.00;;;;;;2497054;55;20958;-72
2023/07/01 01:14:59;;;;;;;2.53;1.15;;;20.50;64.00;;;;;;2502553;55;21045;-73
2023/07/01 01:17:26;;;;;;;2.80;0.90;;;20.50;63.80;;;;;;2283061;55;21473;-75
2023/07/01 01:20:12;;;;;;;2.87;1.20;;;20.40;63.80;;;;;;2509186;55;20982;-73
2023/07/01 01:22:57;;;;;;;2.83;1.40;;;20.40;64.70;;;;;;2299005;55;21035;-72
2023/07/01 01:25:28;;;;;;;2.53;1.27;;;20.40;64.00;;;;;;2536203;54;21464;-74
2023/07/01 01:27:57;;;;;;;2.53;1.30;;;20.30;64.00;;;;;;2272716;56;21013;-71
2023/07/01 01:30:24;;;;;;;2.75;1.42;;;20.30;64.10;;;;;;2473227;55;21009;-72
2023/07/01 01:32:50;;;;;;;4.65;1.50;;;20.30;64.20;;;;;;2496066;54;21007;-74
2023/07/01 01:35:17;;;;;;;2.50;1.40;;;20.20;64.10;;;;;;2250336;55;21044;-73
2023/07/01 01:37:49;;;;;;;2.78;1.40;;;20.20;64.10;;;;;;2486180;55;21020;-74
2023/07/01 01:40:39;;;;;;;3.00;1.48;;;20.20;64.10;;;;;;2508603;54;20986;-75
2023/07/01 01:43:12;;;;;;;2.42;1.33;;;20.20;64.00;;;;;;2281416;56;20963;-75
2023/07/01 01:45:40;;;;;;;3.25;1.45;;;20.20;64.00;;;;;;2504925;54;20965;-74
2023/07/01 01:48:07;;;;;;;2.92;1.40;;;20.20;64.00;;;;;;2262678;55;21471;-72
2023/07/01 01:50:33;;;;;;;2.85;1.35;;;20.20;64.10;;;;;;2282572;55;21010;-73
2023/07/01 01:53:01;;;;;;;3.15;1.40;;;20.20;64.20;;;;;;2516413;55;20978;-73
2023/07/01 01:55:29;;;;;;;2.60;1.35;;;20.10;64.10;;;;;;2300658;55;21044;-72
2023/07/01 01:57:55;;;;;;;3.20;1.75;;;20.10;64.10;;;;;;2309103;55;20984;-72
2023/07/01 02:01:02;;;;;;;3.78;1.67;;;20.10;64.10;;;;;;2266955;56;21002;-72
2023/07/01 02:03:30;;;;;;;2.75;1.27;;;20.20;64.20;;;;;;2515452;55;20986;-72
2023/07/01 02:06:08;;;;;;;4.82;1.50;;;20.10;64.10;;;;;;2516111;55;21423;-71
2023/07/01 02:08:35;;;;;;;2.85;1.50;;;20.10;64.20;;;;;;2510151;55;21443;-71
2023/07/01 02:11:01;;;;;;;2.35;1.15;;;20.10;64.30;;;;;;2281932;55;21073;-70
2023/07/01 02:13:29;;;;;;;3.17;1.37;;;20.10;64.30;;;;;;2494547;55;21150;-74
2023/07/01 02:15:58;;;;;;;3.85;1.40;;;20.10;64.30;;;;;;2496757;55;21053;-70
2023/07/01 02:18:29;;;;;;;2.33;1.20;;;20.10;64.40;;;;;;2511350;55;20929;-73
2023/07/01 02:20:56;;;;;;;2.90;1.60;;;20.10;64.50;;;;;;2513034;55;21462;-71
2023/07/01 02:23:25;;;;;;;3.53;1.73;;;20.00;64.40;;;;;;2283268;55;20950;-73
2023/07/01 02:26:10;;;;;;;2.92;1.37;;;20.10;64.60;;;;;;2516555;55;21034;-73
2023/07/01 02:28:55;;;;;;;3.22;1.40;;;20.10;64.60;;;;;;2302818;55;20956;-72
2023/07/01 02:31:31;;;;;;;3.22;1.37;;;20.10;64.60;;;;;;2270908;55;21533;-72
2023/07/01 02:34:02;;;;;;;4.22;1.40;;;20.00;64.50;;;;;;2547637;54;20924;-71
2023/07/01 02:36:31;;;;;;;3.17;1.30;;;20.00;64.50;;;;;;2259349;56;20955;-71
2023/07/01 02:38:57;;;;;;;2.65;1.50;;;20.00;64.50;;;;;;2547600;54;20948;-72
2023/07/01 02:41:23;;;;;;;3.00;1.60;;;20.00;64.50;;;;;;2494068;54;21031;-72
2023/07/01 02:43:51;;;;;;;2.90;1.50;;;20.00;64.60;;;;;;2282833;56;20983;-71
2023/07/01 02:46:17;;;;;;;2.80;1.45;;;20.00;64.70;;;;;;2279474;55;21940;-72
2023/07/01 02:48:45;;;;;;;3.83;1.45;;;20.00;64.70;;;;;;2515564;55;21066;-74
2023/07/01 02:51:33;;;;;;;2.40;1.20;;;20.10;64.80;;;;;;2514321;55;21412;-71
2023/07/01 02:54:00;;;;;;;2.92;1.42;;;20.10;64.80;;;;;;2299594;55;21002;-74
2023/07/01 02:56:49;;;;;;;2.55;1.25;;;20.10;64.80;;;;;;2301195;55;21532;-73
2023/07/01 02:59:15;;;;;;;2.80;1.45;;;20.10;64.80;;;;;;2535730;54;20953;-70
2023/07/01 03:01:44;;;;;;;2.80;1.50;;;20.10;64.70;;;;;;2539887;54;21046;-71
2023/07/01 03:04:15;;;;;;;2.92;1.45;;;20.10;64.70;;;;;;2308557;55;20999;-74
2023/07/01 03:06:44;;;;;;;3.10;1.58;;;20.10;64.80;;;;;;2554138;54;21711;-74
2023/07/01 03:09:11;;;;;;;2.97;1.62;;;20.10;64.80;;;;;;2553905;54;21555;-71
2023/07/01 03:11:37;;;;;;;2.47;1.25;;;20.10;64.70;;;;;;2553910;54;20995;-71
2023/07/01 03:14:06;;;;;;;4.20;1.48;;;20.10;64.70;;;;;;2297045;55;20991;-72
2023/07/01 03:16:32;;;;;;;3.22;1.50;;;20.10;64.70;;;;;;2503473;54;20935;-71
2023/07/01 03:18:59;;;;;;;2.87;1.48;;;20.10;64.70;;;;;;2550236;54;20944;-71
2023/07/01 03:21:25;;;;;;;5.87;1.50;;;20.10;64.70;;;;;;2313537;55;20975;-72
2023/07/01 03:23:52;;;;;;;2.90;1.50;;;20.10;64.60;;;;;;2553814;54;20975;-74
2023/07/01 03:26:18;;;;;;;3.85;1.67;;;20.10;64.60;;;;;;2554174;54;20996;-72
2023/07/01 03:28:45;;;;;;;3.00;1.60;;;20.10;64.60;;;;;;2547634;54;21452;-71
2023/07/01 03:31:14;;;;;;;3.78;1.62;;;20.10;64.60;;;;;;2521208;54;20940;-72
2023/07/01 03:33:44;;;;;;;3.55;1.87;;;20.10;64.60;;;;;;2301615;55;20951;-73
2023/07/01 03:36:11;;;;;;;3.85;1.90;;;20.10;64.60;;;;;;2546278;54;21541;-71
2023/07/01 03:38:39;;;;;;;3.83;1.48;;;20.10;64.60;;;;;;2531070;54;21704;-70
2023/07/01 03:41:07;;;;;;;3.92;1.62;;;20.10;64.60;;;;;;2522332;54;20975;-71
2023/07/01 03:43:34;;;;;;;3.60;1.48;;;20.10;64.70;;;;;;2308952;55;21419;-73
2023/07/01 03:46:01;;;;;;;3.33;1.70;;;20.10;64.60;;;;;;2302363;55;20999;-71
2023/07/01 03:48:27;;;;;;;3.67;1.70;;;20.10;64.60;;;;;;2313623;55;20944;-73
2023/07/01 03:50:54;;;;;;;2.65;1.35;;;20.00;64.50;;;;;;2547454;54;21397;-72
2023/07/01 03:53:32;;;;;;;3.30;1.67;;;20.00;64.50;;;;;;2307172;55;21444;-72
2023/07/01 03:55:58;;;;;;;3.17;1.60;;;20.00;64.40;;;;;;2314075;55;20948;-73
2023/07/01 03:58:29;;;;;;;3.33;1.48;;;20.00;64.40;;;;;;2553228;54;21026;-72
2023/07/01 04:00:56;;;;;;;4.00;1.33;;;20.00;64.50;;;;;;2554234;54;21432;-70
2023/07/01 04:03:23;;;;;;;3.12;1.60;;;20.00;64.40;;;;;;2307270;55;21411;-72
2023/07/01 04:05:52;;;;;;;3.70;1.50;;;20.00;64.50;;;;;;2553031;54;21789;-71
2023/07/01 04:08:19;;;;;;;2.83;1.50;;;20.00;64.50;;;;;;2553362;54;21055;-70
2023/07/01 04:10:46;;;;;;;3.42;1.60;;;20.00;64.50;;;;;;2553762;54;21035;-73
2023/07/01 04:16:53;;;;;;;3.97;1.77;;;20.00;64.40;;;;;;2554292;54;20983;-76
2023/07/01 04:19:19;;;;;;;3.08;1.58;;;20.00;64.40;;;;;;2554024;54;21023;-72
2023/07/01 04:21:59;;;;;;;2.95;1.42;;;20.00;64.40;;;;;;2309018;55;20955;-73
2023/07/01 04:24:28;;;;;;;2.90;1.50;;;20.00;64.40;;;;;;2554030;54;20971;-74
2023/07/01 04:26:55;;;;;;;3.53;1.52;;;19.90;64.30;;;;;;2554157;54;21011;-73
2023/07/01 04:29:30;;;;;;;2.58;1.40;;;19.90;64.30;;;;;;2550868;54;21003;-72
2023/07/01 04:32:11;;;;;;;3.72;1.50;;;19.90;64.30;;;;;;2314577;55;21007;-74
2023/07/01 04:34:42;;;;;;;2.78;1.45;;;19.90;64.30;;;;;;2554440;54;20987;-73
2023/07/01 04:37:11;;;;;;;3.37;1.50;;;20.00;64.40;;;;;;2554219;54;21843;-74
2023/07/01 04:39:39;;;;;;;2.70;1.40;;;20.00;64.50;;;;;;2547557;54;21438;-75
2023/07/01 04:42:08;;;;;;;2.80;1.60;;;19.90;64.50;;;;;;2314414;55;20940;-75
2023/07/01 04:44:36;;;;;;;3.70;2.00;;;19.90;64.60;;;;;;2553629;54;21077;-73
2023/07/01 04:47:03;;;;;;;3.12;1.70;;;19.90;64.60;;;;;;2314048;55;21011;-72
2023/07/01 04:49:36;;;;;;;3.87;1.52;;;20.00;64.80;;;;;;2554044;54;20943;-75
2023/07/01 04:52:26;;;;;;;4.03;1.70;;;19.90;64.70;;;;;;2554691;54;21806;-74
2023/07/01 04:54:53;;;;;;;3.95;1.40;;;19.90;64.60;;;;;;2549258;54;21440;-75
2023/07/01 04:57:31;;;;;;;3.30;1.30;;;19.90;64.60;;;;;;2553802;54;21047;-74
2023/07/01 04:59:58;;;;;;;3.28;1.60;;;20.00;64.80;;;;;;2554262;54;21405;-72
2023/07/01 05:02:24;;;;;;;3.65;1.60;;;20.00;64.80;;;;;;2553636;54;21011;-73
2023/07/01 05:04:51;;;;;;;2.87;1.50;;;20.00;64.90;;;;;;2522362;54;21076;-71
2023/07/01 05:07:21;;;;;;;3.62;1.60;;;20.00;64.90;;;;;;2314153;55;21079;-73
2023/07/01 05:09:48;;;;;;;2.67;1.40;;;20.00;64.80;;;;;;2553760;54;21444;-75
2023/07/01 05:12:14;;;;;;;2.65;1.48;;;20.00;64.80;;;;;;2313521;55;21401;-74
2023/07/01 05:14:41;;;;;;;4.32;1.48;;;20.00;64.80;;;;;;2313924;55;21927;-73
2023/07/01 05:17:09;;;;;;;3.97;1.58;;;20.00;64.80;;;;;;2554075;54;21055;-75
2023/07/01 05:19:37;;;;;;;3.75;2.05;;;20.00;64.80;;;;;;2313393;55;20976;-71
2023/07/01 05:22:03;;;;;;;4.75;2.22;;;20.10;65.00;;;;;;2314703;55;21086;-71
2023/07/01 05:24:30;;;;;;;3.12;1.70;;;20.10;65.10;;;;;;2309236;55;20983;-71
2023/07/01 05:27:31;;;;;;;5.47;1.95;;;20.10;65.10;;;;;;2313733;55;20948;-71
2023/07/01 05:29:57;;;;;;;4.00;2.03;;;20.10;65.40;;;;;;2534922;54;20957;-73
2023/07/01 05:32:36;;;;;;;3.75;2.25;;;20.10;65.30;;;;;;2529856;54;20959;-75
2023/07/01 05:35:03;;;;;;;3.22;1.83;;;20.20;65.70;;;;;;2314259;55;20951;-74
2023/07/01 05:37:29;;;;;;;3.30;1.90;;;20.20;65.50;;;;;;2304951;55;20971;-75
2023/07/01 05:39:55;;;;;;;3.83;2.08;;;20.20;65.60;;;;;;2309125;55;20971;-75
2023/07/01 05:42:22;;;;;;;4.00;2.40;;;20.20;65.70;;;;;;2551156;54;20996;-74
2023/07/01 05:44:48;;;;;;;3.45;2.17;;;20.20;65.80;;;;;;2523510;54;20943;-75
2023/07/01 05:47:15;;;;;;;4.40;2.25;;;20.30;65.90;;;;;;2306349;55;21420;-72
2023/07/01 05:49:41;;;;;;;3.33;1.90;;;20.30;66.00;;;;;;2547246;54;20948;-73
2023/07/01 05:52:07;;;;;;;2.92;1.70;;;20.30;66.00;;;;;;2309135;56;20967;-76
2023/07/01 05:54:39;;;;;;;4.55;2.53;;;20.40;66.10;;;;;;2520590;54;21001;-72
2023/07/01 05:57:08;;;;;;;3.78;1.62;;;20.40;66.10;;;;;;2309938;55;20984;-72
2023/07/01 05:59:36;;;;;;;3.22;1.85;;;20.50;66.20;;;;;;2309749;55;20987;-71
2023/07/01 06:02:40;;;;;;;5.95;2.20;;;20.50;66.30;;;;;;2549218;54;20952;-76
2023/07/01 06:05:16;;;;;;;2.83;1.55;;;20.60;66.50;;;;;;2293849;55;20965;-72
2023/07/01 06:07:44;;;;;;;4.93;2.08;;;20.60;67.00;;;;;;2528057;54;21072;-74
2023/07/01 06:10:53;;;;;;;3.30;1.90;;;20.60;66.20;;;;;;2542629;54;21120;-71
2023/07/01 06:13:19;;;;;;;4.12;2.45;;;20.70;66.50;;;;;;2297533;55;20951;-74
2023/07/01 06:15:46;;;;;;;3.12;1.80;;;20.70;66.20;;;;;;2520561;54;21065;-72
2023/07/01 06:18:13;;;;;;;2.87;1.85;;;20.80;66.40;;;;;;2547806;54;20924;-69
2023/07/01 06:20:43;;;;;;;3.55;1.75;;;20.80;67.00;;;;;;2543095;54;21025;-72
2023/07/01 06:23:09;;;;;;;3.03;1.50;;;20.80;66.10;;;;;;2293698;55;21491;-70
2023/07/01 06:25:36;;;;;;;3.58;1.83;;;20.90;66.00;;;;;;2547452;54;20963;-72
2023/07/01 06:28:07;;;;;;;4.87;1.60;;;20.90;65.80;;;;;;2553094;54;20912;-73
2023/07/01 06:30:33;;;;;;;6.10;2.10;;;20.90;65.60;;;;;;2534481;54;20946;-72
2023/07/01 06:33:00;;;;;;;4.25;1.50;;;20.90;65.40;;;;;;2552945;54;20991;-72
2023/07/01 06:35:27;;;;;;;3.72;1.73;;;20.90;65.20;;;;;;2553961;54;21011;-70
2023/07/01 06:37:53;;;;;;;4.95;1.92;;;21.00;65.10;;;;;;2306028;55;21069;-73
2023/07/01 06:40:23;;;;;;;3.12;1.52;;;21.00;65.00;;;;;;2536122;54;21062;-72
2023/07/01 06:42:52;;;;;;;3.25;1.62;;;21.00;64.80;;;;;;2304724;55;20956;-74
2023/07/01 06:45:19;;;;;;;3.47;1.90;;;21.00;64.60;;;;;;2311581;55;20932;-72
2023/07/01 06:47:45;;;;;;;3.83;1.60;;;21.00;64.30;;;;;;2296176;55;21148;-71
2023/07/01 06:50:12;;;;;;;2.83;1.23;;;21.00;64.30;;;;;;2290087;55;20940;-70
2023/07/01 06:52:39;;;;;;;4.03;1.50;;;21.10;64.40;;;;;;2520452;54;20946;-72
2023/07/01 06:55:07;;;;;;;3.40;1.58;;;21.10;64.30;;;;;;2537306;54;21459;-73
2023/07/01 06:57:33;;;;;;;3.08;1.70;;;21.10;64.20;;;;;;2539135;54;21955;-72
2023/07/01 07:00:05;;;;;;;4.00;1.60;;;21.10;64.10;;;;;;2298224;55;20933;-67
2023/07/01 07:02:31;;;;;;;3.12;1.50;;;21.10;64.10;;;;;;2307633;55;21084;-69
2023/07/01 07:04:59;;;;;;;3.80;1.40;;;21.10;64.20;;;;;;2313905;55;20952;-69
2023/07/01 07:07:25;;;;;;;3.20;1.10;;;21.10;64.10;;;;;;2313275;55;20975;-71
2023/07/01 07:09:52;;;;;;;3.50;1.60;;;21.10;64.00;;;;;;2313454;55;22440;-70
2023/07/01 07:12:27;;;;;;;3.10;1.52;;;21.10;63.80;;;;;;2313399;55;21087;-69
2023/07/01 07:15:30;;;;;;;3.17;1.33;;;21.20;63.50;;;;;;2521783;54;21039;-66
2023/07/01 07:18:18;;;;;;;;;;;21.20;63.30;;;;;;2549479;54;20951;-72
2023/07/01 07:20:46;;;;;;;2.60;1.10;;;21.20;63.30;;;;;;2310635;55;20127;-71
2023/07/01 07:23:14;;;;;;;3.28;1.30;;;21.20;63.50;;;;;;2550922;54;20987;-70
2023/07/01 07:25:41;;;;;;;3.87;1.27;;;21.20;63.40;;;;;;2314663;55;20940;-70
2023/07/01 07:28:08;;;;;;;3.08;1.40;;;21.20;63.30;;;;;;2311584;55;20956;-70
2023/07/01 07:30:39;;;;;;;2.35;1.12;;;21.20;63.20;;;;;;2314372;55;20940;-68
2023/07/01 07:33:07;;;;;;;2.53;1.30;;;21.30;63.10;;;;;;2554592;54;20951;-70
2023/07/01 07:35:34;;;;;;;2.12;1.10;;;21.30;63.10;;;;;;2553010;54;21034;-73
2023/07/01 07:38:04;;;;;;;3.28;1.48;;;21.30;63.10;;;;;;2304149;55;21205;-71
2023/07/01 07:40:31;;;;;;;2.75;1.17;;;21.30;62.90;;;;;;2513789;55;21012;-74
2023/07/01 07:42:58;;;;;;;2.80;1.30;;;21.30;63.00;;;;;;2529702;54;20939;-74
2023/07/01 07:45:30;;;;;;;2.35;1.20;;;21.30;63.00;;;;;;2554310;54;20948;-70
2023/07/01 07:47:57;;;;;;;2.97;1.10;;;21.40;62.90;;;;;;2290618;55;20989;-72
2023/07/01 07:50:23;;;;;;;2.28;1.05;;;21.30;62.80;;;;;;2554317;54;20927;-75
2023/07/01 07:53:08;;;;;;;3.12;1.00;;;21.40;62.80;;;;;;2311278;55;20955;-69
2023/07/01 07:55:40;;;;;;;4.75;1.30;;;21.40;62.30;;;;;;2298737;55;20966;-69
2023/07/01 07:58:06;;;;;;;2.80;1.30;;;21.40;62.40;;;;;;2512436;55;20949;-71
2023/07/01 08:00:33;;;;;;;3.95;1.40;;;21.40;62.50;;;;;;2510409;55;21200;-71
2023/07/01 08:03:01;;;;;;;3.55;1.27;;;21.40;62.40;;;;;;2527682;54;21759;-70
2023/07/01 08:05:28;;;;;;;3.10;1.33;;;21.50;62.50;;;;;;2542643;54;20957;-70
2023/07/01 08:07:54;;;;;;;3.40;1.23;;;21.50;62.50;;;;;;2509700;55;20922;-71
2023/07/01 08:10:20;;;;;;;4.25;1.30;;;21.50;62.50;;;;;;2250860;56;21030;-74
2023/07/01 08:12:53;;;;;;;5.05;1.50;;;21.50;62.30;;;;;;2485726;55;20934;-72
2023/07/01 08:15:19;;;;;;;4.28;1.10;;;21.60;62.00;;;;;;2492255;55;21042;-73
2023/07/01 08:17:46;;;;;;;2.85;1.30;;;21.60;62.00;;;;;;2513788;54;20996;-70
2023/07/01 08:20:12;;;;;;;5.10;1.27;;;21.60;62.00;;;;;;2308430;55;20947;-68
2023/07/01 08:22:39;;;;;;;3.12;1.05;;;21.60;62.00;;;;;;2539510;54;20973;-69
2023/07/01 08:25:06;;;;;;;2.87;1.30;;;21.70;62.20;;;;;;2533669;54;21448;-68
2023/07/01 08:31:00;;;;;;;3.28;1.48;;;21.80;61.80;;;;;;2515695;55;20959;-70
2023/07/01 08:33:28;;;;;;;3.20;1.10;;;21.80;62.20;;;;;;2522183;54;22148;-70
2023/07/01 08:35:56;;;;;;;2.65;1.25;;;21.90;62.10;;;;;;2514541;54;20971;-70
2023/07/01 08:38:30;;;;;;;2.90;1.10;;;21.90;61.90;;;;;;2473076;55;2250597;-67
2023/07/01 08:41:21;;;;;;;3.70;1.20;;;21.90;61.60;;;;;;2512415;55;20936;-69
2023/07/01 08:43:50;;;;;;;3.60;1.60;;;22.00;61.20;;;;;;2513015;55;21483;-70
2023/07/01 08:46:19;;;;;;;5.50;1.20;;;22.10;61.60;;;;;;2516625;55;21024;-67
2023/07/01 08:48:49;;;;;;;2.22;1.00;;;22.10;61.20;;;;;;2283144;55;22174;-69
2023/07/01 08:51:26;;;;;;;2.60;1.02;;;22.10;61.00;;;;;;2516817;55;21027;-70
2023/07/01 08:53:52;;;;;;;3.12;1.20;;;22.20;60.80;;;;;;2513925;54;20927;-73
2023/07/01 08:56:19;;;;;;;4.85;1.50;;;22.20;60.80;;;;;;2283081;55;20948;-72
2023/07/01 08:58:49;;;;;;;3.83;1.10;;;22.20;60.50;;;;;;2511749;55;20983;-68
2023/07/01 09:01:17;;;;;;;2.85;1.17;;;22.30;60.40;;;;;;2283143;55;21027;-69
2023/07/01 09:03:46;;;;;;;3.83;1.30;;;22.30;61.20;;;;;;2515364;55;21487;-73
2023/07/01 09:06:15;;;;;;;3.17;1.10;;;22.40;60.30;;;;;;2282576;55;20938;-71
2023/07/01 09:08:42;;;;;;;2.08;0.90;;;22.40;60.10;;;;;;2513954;55;21436;-68
2023/07/01 09:11:14;;;;;;;5.07;1.30;;;22.50;60.20;;;;;;2515702;55;21360;-73
2023/07/01 09:13:40;;;;;;;4.00;1.60;;;22.50;59.80;;;;;;2282066;55;20997;-70
2023/07/01 09:16:07;;;;;;;1.95;0.82;;;22.50;60.00;;;;;;2516141;55;20940;-69
2023/07/01 09:18:34;;;;;;;2.87;1.37;;;22.60;59.90;;;;;;2521166;54;20956;-70
2023/07/01 09:21:17;;;;;;;2.53;0.90;;;22.60;59.80;;;;;;2516458;54;20982;-69
2023/07/01 09:23:46;;;;;;;2.15;1.00;;;22.60;58.90;;;;;;2518225;54;21048;-68
2023/07/01 09:26:17;;;;;;;2.55;1.08;;;22.70;59.30;;;;;;2267586;55;20978;-70
2023/07/01 09:28:56;;;;;;;3.08;1.17;;;22.70;59.20;;;;;;2515076;55;21467;-71
2023/07/01 09:31:29;;;;;;;2.17;1.10;;;22.70;58.60;;;;;;2513814;55;20950;-70
2023/07/01 09:34:05;;;;;;;2.80;1.08;;;22.70;58.80;;;;;;2282297;55;20958;-73
2023/07/01 09:36:32;;;;;;;3.25;1.20;;;22.70;58.90;;;;;;2515276;55;21002;-69
2023/07/01 09:39:00;;;;;;;2.83;1.20;;;22.70;58.70;;;;;;2281972;55;20979;-71
2023/07/01 09:41:27;;;;;;;3.53;1.48;;;22.70;58.60;;;;;;2513367;55;20979;-68
2023/07/01 09:44:16;;;;;;;3.28;1.62;;;22.70;58.30;;;;;;2515089;55;20981;-68
2023/07/01 09:46:46;;;;;;;3.10;1.33;;;22.70;57.70;;;;;;2507868;55;20998;-69
2023/07/01 09:49:13;;;;;;;3.92;1.40;;;22.70;58.20;;;;;;2251285;55;21026;-71
2023/07/01 09:51:49;;;;;;;3.37;1.60;;;22.70;58.10;;;;;;2508975;54;20960;-68
2023/07/01 09:54:31;;;;;;;5.20;1.73;;;22.70;57.80;;;;;;2515040;54;21429;-68
2023/07/01 09:56:58;;;;;;;3.28;1.30;;;22.70;57.50;;;;;;2282671;57;21549;-70
2023/07/01 09:59:25;;;;;;;2.45;1.30;;;22.70;58.10;;;;;;2499310;55;21615;-67
2023/07/01 10:01:56;;;;;;;2.75;1.25;;;22.70;58.10;;;;;;2515433;55;20958;-67
2023/07/01 10:04:27;;;;;;;2.90;1.40;;;22.70;57.90;;;;;;2516091;55;20986;-67
2023/07/01 10:06:55;;;;;;;2.60;1.23;;;22.70;58.00;;;;;;2278933;55;21395;-68
2023/07/01 10:09:23;;;;;;;3.72;1.50;;;22.70;57.90;;;;;;2507756;55;21058;-67
2023/07/01 10:11:52;;;;;;;3.92;1.45;;;22.80;58.00;;;;;;2514509;54;21920;-67
2023/07/01 10:14:23;;;;;;;2.67;1.20;;;22.80;58.00;;;;;;2522431;54;20958;-67
2023/07/01 10:16:49;;;;;;;2.87;1.50;;;22.80;58.00;;;;;;2515506;55;20986;-68
2023/07/01 10:19:33;;;;;;;6.10;2.12;;;22.80;57.90;;;;;;2277778;56;21027;-71
2023/07/01 10:22:31;;;;;;;;;;;22.80;57.20;;;;;;2296846;55;20991;-67
2023/07/01 10:25:05;;;;;;;2.97;1.23;;;22.90;57.40;;;;;;2283105;56;20109;-68
2023/07/01 10:28:35;;;;;;;3.78;1.37;;;23.00;57.80;;;;;;2282437;56;20962;-67
2023/07/01 10:31:10;;;;;;;2.97;1.08;;;23.00;57.10;;;;;;2516079;55;20950;-69
2023/07/01 10:33:58;;;;;;;2.80;1.10;;;23.00;57.20;;;;;;2512678;55;20974;-67
2023/07/01 10:36:24;;;;;;;2.87;1.20;;;23.10;56.90;;;;;;2496091;55;21468;-67
2023/07/01 10:38:50;;;;;;;4.20;1.48;;;23.10;57.60;;;;;;2490333;54;20920;-67
2023/07/01 10:41:51;;;;;;;3.45;1.42;;;23.10;57.60;;;;;;2533741;54;20915;-67
2023/07/01 10:44:22;;;;;;;2.40;1.05;;;23.10;56.80;;;;;;2273593;55;20964;-70
2023/07/01 10:47:11;;;;;;;2.47;0.90;;;23.20;57.20;;;;;;2509132;55;20970;-69
2023/07/01 10:50:02;;;;;;;3.12;1.17;;;23.20;56.90;;;;;;2512803;55;21010;-67
2023/07/01 10:52:29;;;;;;;2.12;0.93;;;23.20;57.10;;;;;;2282283;55;21026;-69
2023/07/01 10:54:56;;;;;;;3.80;1.10;;;23.20;57.40;;;;;;2288955;55;21012;-69
2023/07/01 10:57:22;;;;;;;2.60;1.10;;;23.20;57.40;;;;;;2548783;54;21012;-69
2023/07/01 11:00:25;;;;;;;1.70;0.90;;;23.30;57.50;;;;;;2518614;54;20955;-67
2023/07/01 11:02:52;;;;;;;2.65;1.00;;;23.30;57.30;;;;;;2498662;55;21001;-67
2023/07/01 11:05:21;;;;;;;2.65;0.90;;;23.40;57.80;;;;;;2482396;55;21001;-67
2023/07/01 11:11:25;;;;;;;2.35;1.02;;;23.40;57.70;;;;;;2261531;56;20982;-68
2023/07/01 11:14:06;;;;;;;3.03;0.95;;;23.50;57.50;;;;;;2284116;55;20978;-67
2023/07/01 11:16:33;;;;;;;3.35;1.20;;;23.60;57.50;;;;;;2505488;54;21050;-65
2023/07/01 11:19:04;;;;;;;4.05;1.20;;;23.60;57.70;;;;;;2276933;56;21022;-70
2023/07/01 11:21:31;;;;;;;2.35;0.98;;;23.70;57.60;;;;;;2276366;56;21018;-70
2023/07/01 11:24:05;;;;;;;3.75;1.20;;;23.70;57.50;;;;;;2514875;55;20974;-70
2023/07/01 11:26:33;;;;;;;2.60;0.80;;;23.80;57.10;;;;;;2278411;56;21039;-66
2023/07/01 11:28:59;;;;;;;2.72;0.95;;;23.80;57.30;;;;;;2292682;55;21085;-68
2023/07/01 11:31:31;;;;;;;2.92;1.00;;;23.80;57.30;;;;;;2501262;55;20950;-72
2023/07/01 11:34:10;;;;;;;1.83;0.90;;;23.90;57.00;;;;;;2516179;55;20958;-71
2023/07/01 11:36:38;;;;;;;2.58;1.05;;;23.90;56.60;;;;;;2509778;55;21732;-70
2023/07/01 11:39:15;;;;;;;3.00;1.20;;;23.90;57.00;;;;;;2516672;55;20954;-70
2023/07/01 11:41:50;;;;;;;2.72;1.10;;;24.00;56.60;;;;;;2516802;55;20999;-71
2023/07/01 11:44:24;;;;;;;2.65;1.15;;;24.10;56.80;;;;;;2523512;54;20987;-70
2023/07/01 11:46:53;;;;;;;4.15;1.08;;;24.10;56.90;;;;;;2291702;55;21435;-70
2023/07/01 11:49:26;;;;;;;3.50;1.30;;;24.10;56.90;;;;;;2509290;55;20962;-68
2023/07/01 11:52:23;;;;;;;2.70;0.95;;;24.20;56.70;;;;;;2515729;55;22153;-69
2023/07/01 11:54:52;;;;;;;3.95;1.20;;;24.20;56.40;;;;;;2528983;54;20912;-69
2023/07/01 11:57:20;;;;;;;2.55;0.88;;;24.20;56.80;;;;;;2504658;54;20948;-69
2023/07/01 11:59:48;;;;;;;2.50;1.00;;;24.20;56.80;;;;;;2275324;56;21454;-69
2023/07/01 12:02:25;;;;;;;2.37;1.20;;;24.20;56.50;;;;;;2516240;55;21607;-70
2023/07/01 12:05:19;;;;;;;2.40;1.00;;;24.30;56.00;;;;;;2254842;56;21010;-71
2023/07/01 12:07:55;;;;;;;2.62;0.90;;;24.30;55.90;;;;;;2505891;55;20998;-70
2023/07/01 12:10:22;;;;;;;1.95;0.85;;;24.40;56.00;;;;;;2289746;55;20923;-71
2023/07/01 12:12:51;;;;;;;2.37;0.80;;;24.40;56.20;;;;;;2541218;54;20970;-69
2023/07/01 12:15:19;;;;;;;1.83;0.70;;;24.40;56.10;;;;;;2305144;55;21370;-70
2023/07/01 12:18:29;;;;;;;1.52;0.80;;;24.40;56.00;;;;;;2303063;55;20991;-70
2023/07/01 12:20:56;;;;;;;2.10;0.80;;;24.40;55.60;;;;;;2280304;56;21621;-71
2023/07/01 12:23:23;;;;;;;2.53;0.80;;;24.40;56.10;;;;;;2280552;56;21443;-70
2023/07/01 12:25:49;;;;;;;1.90;0.70;;;24.40;56.00;;;;;;2276546;56;20924;-71
2023/07/01 12:28:18;;;;;;;1.37;0.60;;;24.40;56.00;;;;;;2541703;54;20948;-73
2023/07/01 12:30:45;;;;;;;2.78;0.80;;;24.50;55.80;;;;;;2520748;54;20944;-70
2023/07/01 12:33:11;;;;;;;2.03;0.85;;;24.40;55.50;;;;;;2520305;54;20990;-70
2023/07/01 12:35:41;;;;;;;1.73;0.65;;;24.40;55.50;;;;;;2515357;55;20943;-69
2023/07/01 12:38:11;;;;;;;1.77;0.80;;;24.40;55.40;;;;;;2291029;55;21019;-72
2023/07/01 12:40:38;;;;;;;1.98;0.70;;;24.40;55.60;;;;;;2533234;54;21019;-73
2023/07/01 12:43:10;;;;;;;1.35;0.60;;;24.40;55.70;;;;;;2309067;55;20936;-73
2023/07/01 12:45:37;;;;;;;;;;;24.40;55.60;;;;;;2540208;54;21731;-72
2023/07/01 12:48:05;;;;;;;1.45;0.60;;;24.40;55.50;;;;;;2517925;54;20114;-72
2023/07/01 12:50:31;;;;;;;1.33;0.60;;;24.40;56.00;;;;;;2282838;55;21028;-71
2023/07/01 12:53:01;;;;;;;1.80;0.70;;;24.40;55.90;;;;;;2281647;55;21016;-72
2023/07/01 12:55:27;;;;;;;2.12;0.80;;;24.40;55.90;;;;;;2516073;55;21413;-72
2023/07/01 12:57:54;;;;;;;2.08;0.60;;;24.30;55.90;;;;;;2515801;55;21739;-75
2023/07/01 13:01:04;;;;;;;4.00;0.90;;;24.30;55.80;;;;;;2515026;55;20975;-73
2023/07/01 13:03:33;;;;;;;3.85;0.70;;;24.30;55.30;;;;;;2508749;55;21740;-72
2023/07/01 13:06:03;;;;;;;2.60;0.85;;;24.30;55.70;;;;;;2520912;54;20938;-76
2023/07/01 13:08:44;;;;;;;4.72;0.90;;;24.30;55.80;;;;;;2482469;55;21827;-75
2023/07/01 13:11:16;;;;;;;1.73;0.80;;;24.40;55.60;;;;;;2277680;56;21089;-73
2023/07/01 13:13:42;;;;;;;2.25;0.90;;;24.30;55.80;;;;;;2283089;55;21007;-75
2023/07/01 13:16:42;;;;;;;1.50;0.65;;;24.40;55.90;;;;;;2515817;55;21061;-74
2023/07/01 13:19:13;;;;;;;1.90;0.82;;;24.40;55.30;;;;;;2516315;55;20965;-72
2023/07/01 13:21:44;;;;;;;2.30;0.90;;;24.40;55.70;;;;;;2301935;55;21777;-74
2023/07/01 13:24:54;;;;;;;2.40;0.88;;;24.50;55.90;;;;;;2517447;54;20946;-74
2023/07/01 13:27:20;;;;;;;2.15;0.73;;;24.50;55.40;;;;;;2529242;54;20991;-73
2023/07/01 13:29:47;;;;;;;2.37;1.00;;;24.60;55.90;;;;;;2511821;55;21908;-74